sensor_id;sensor_type;location;lat;lon;timestamp;P1;durP1;ratioP1;P2;durP2;ratioP2
27632;SDS011;15046;50.930;13.334;2023-02-25T00:01:07;23.42;;;10.65;;
27632;SDS011;15046;50.930;13.334;2023-02-25T00:03:38;29.30;;;11.02;;
27632;SDS011;15046;50.930;13.334;2023-02-25T00:06:05;21.67;;;10.55;;
27632;SDS011;15046;50.930;13.334;2023-02-25T00:08:33;23.67;;;9.88;;
27632;SDS011;15046;50.930;13.334;2023-02-25T00:11:00;20.27;;;8.63;;
27632;SDS011;15046;50.930;13.334;2023-02-25T00:13:28;27.42;;;11.07;;
27632;SDS011;15046;50.930;13.334;2023-02-25T00:15:55;20.48;;;9.02;;
27632;SDS011;15046;50.930;13.334;2023-02-25T00:18:25;22.67;;;8.93;;
27632;SDS011;15046;50.930;13.334;2023-02-25T00:20:51;20.58;;;8.40;;
27632;SDS011;15046;50.930;13.334;2023-02-25T00:23:18;21.13;;;9.80;;
27632;SDS011;15046;50.930;13.334;2023-02-25T00:25:44;19.17;;;9.55;;
27632;SDS011;15046;50.930;13.334;2023-02-25T00:28:10;24.17;;;10.30;;
27632;SDS011;15046;50.930;13.334;2023-02-25T00:30:37;24.42;;;9.85;;
27632;SDS011;15046;50.930;13.334;2023-02-25T00:33:04;23.15;;;11.48;;
27632;SDS011;15046;50.930;13.334;2023-02-25T00:35:38;20.67;;;9.88;;
27632;SDS011;15046;50.930;13.334;2023-02-25T00:40:31;26.98;;;10.68;;
27632;SDS011;15046;50.930;13.334;2023-02-25T00:42:58;25.33;;;11.18;;
27632;SDS011;15046;50.930;13.334;2023-02-25T00:45:24;21.98;;;10.43;;
27632;SDS011;15046;50.930;13.334;2023-02-25T00:47:49;25.73;;;11.13;;
27632;SDS011;15046;50.930;13.334;2023-02-25T00:50:15;22.98;;;10.32;;
27632;SDS011;15046;50.930;13.334;2023-02-25T00:52:41;23.77;;;9.63;;
27632;SDS011;15046;50.930;13.334;2023-02-25T00:55:07;25.40;;;10.85;;
27632;SDS011;15046;50.930;13.334;2023-02-25T00:57:34;23.63;;;10.77;;
27632;SDS011;15046;50.930;13.334;2023-02-25T00:59:59;23.63;;;10.80;;
27632;SDS011;15046;50.930;13.334;2023-02-25T01:02:25;25.85;;;10.93;;
27632;SDS011;15046;50.930;13.334;2023-02-25T01:04:51;23.85;;;10.45;;
27632;SDS011;15046;50.930;13.334;2023-02-25T01:07:17;25.52;;;9.68;;
27632;SDS011;15046;50.930;13.334;2023-02-25T01:09:45;23.73;;;9.98;;
27632;SDS011;15046;50.930;13.334;2023-02-25T01:12:11;21.08;;;9.43;;
27632;SDS011;15046;50.930;13.334;2023-02-25T01:14:36;24.02;;;9.27;;
27632;SDS011;15046;50.930;13.334;2023-02-25T01:17:03;20.58;;;9.00;;
27632;SDS011;15046;50.930;13.334;2023-02-25T01:19:28;20.52;;;8.77;;
27632;SDS011;15046;50.930;13.334;2023-02-25T01:21:55;18.17;;;7.85;;
27632;SDS011;15046;50.930;13.334;2023-02-25T01:24:23;20.00;;;7.85;;
27632;SDS011;15046;50.930;13.334;2023-02-25T01:26:56;13.73;;;5.68;;
27632;SDS011;15046;50.930;13.334;2023-02-25T01:29:27;25.27;;;7.90;;
27632;SDS011;15046;50.930;13.334;2023-02-25T01:32:03;18.48;;;6.72;;
27632;SDS011;15046;50.930;13.334;2023-02-25T01:34:30;23.58;;;8.40;;
27632;SDS011;15046;50.930;13.334;2023-02-25T01:36:57;17.27;;;6.80;;
27632;SDS011;15046;50.930;13.334;2023-02-25T01:39:23;18.13;;;6.45;;
27632;SDS011;15046;50.930;13.334;2023-02-25T01:41:51;13.98;;;6.03;;
27632;SDS011;15046;50.930;13.334;2023-02-25T01:44:28;19.23;;;5.93;;
27632;SDS011;15046;50.930;13.334;2023-02-25T01:46:56;11.18;;;5.00;;
27632;SDS011;15046;50.930;13.334;2023-02-25T01:49:24;15.57;;;4.97;;
27632;SDS011;15046;50.930;13.334;2023-02-25T01:51:53;14.25;;;4.60;;
27632;SDS011;15046;50.930;13.334;2023-02-25T01:54:23;14.85;;;4.60;;
27632;SDS011;15046;50.930;13.334;2023-02-25T01:56:50;10.75;;;3.97;;
27632;SDS011;15046;50.930;13.334;2023-02-25T01:59:19;13.63;;;4.97;;
27632;SDS011;15046;50.930;13.334;2023-02-25T02:01:47;12.23;;;4.07;;
27632;SDS011;15046;50.930;13.334;2023-02-25T02:04:13;13.82;;;4.30;;
27632;SDS011;15046;50.930;13.334;2023-02-25T02:06:43;17.40;;;4.68;;
27632;SDS011;15046;50.930;13.334;2023-02-25T02:09:12;11.50;;;3.42;;
27632;SDS011;15046;50.930;13.334;2023-02-25T02:11:40;14.30;;;4.43;;
27632;SDS011;15046;50.930;13.334;2023-02-25T02:14:07;12.35;;;4.70;;
27632;SDS011;15046;50.930;13.334;2023-02-25T02:25:11;14.45;;;4.70;;
27632;SDS011;15046;50.930;13.334;2023-02-25T02:36:51;10.10;;;4.00;;
27632;SDS011;15046;50.930;13.334;2023-02-25T02:42:13;13.35;;;3.72;;
27632;SDS011;15046;50.930;13.334;2023-02-25T02:44:54;10.27;;;3.28;;
27632;SDS011;15046;50.930;13.334;2023-02-25T02:47:44;14.63;;;4.40;;
27632;SDS011;15046;50.930;13.334;2023-02-25T02:53:21;9.82;;;3.53;;
27632;SDS011;15046;50.930;13.334;2023-02-25T02:55:55;12.68;;;3.58;;
27632;SDS011;15046;50.930;13.334;2023-02-25T03:01:26;16.58;;;5.10;;
27632;SDS011;15046;50.930;13.334;2023-02-25T03:03:54;15.57;;;3.30;;
27632;SDS011;15046;50.930;13.334;2023-02-25T03:06:28;12.07;;;3.67;;
27632;SDS011;15046;50.930;13.334;2023-02-25T03:09:09;13.93;;;3.13;;
27632;SDS011;15046;50.930;13.334;2023-02-25T03:11:39;15.80;;;3.33;;
27632;SDS011;15046;50.930;13.334;2023-02-25T03:14:05;14.07;;;3.65;;
27632;SDS011;15046;50.930;13.334;2023-02-25T03:16:37;9.90;;;3.45;;
27632;SDS011;15046;50.930;13.334;2023-02-25T03:19:14;8.50;;;3.35;;
27632;SDS011;15046;50.930;13.334;2023-02-25T03:24:22;10.20;;;3.78;;
27632;SDS011;15046;50.930;13.334;2023-02-25T03:26:55;13.50;;;3.33;;
27632;SDS011;15046;50.930;13.334;2023-02-25T03:29:22;12.50;;;3.17;;
27632;SDS011;15046;50.930;13.334;2023-02-25T03:34:54;15.80;;;3.22;;
27632;SDS011;15046;50.930;13.334;2023-02-25T03:37:16;9.30;;;3.30;;
27632;SDS011;15046;50.930;13.334;2023-02-25T03:39:47;14.02;;;3.53;;
27632;SDS011;15046;50.930;13.334;2023-02-25T03:42:23;7.53;;;3.03;;
27632;SDS011;15046;50.930;13.334;2023-02-25T03:44:57;10.60;;;3.00;;
27632;SDS011;15046;50.930;13.334;2023-02-25T03:47:25;11.00;;;3.08;;
27632;SDS011;15046;50.930;13.334;2023-02-25T03:52:45;8.55;;;3.97;;
27632;SDS011;15046;50.930;13.334;2023-02-25T03:55:11;6.13;;;2.78;;
27632;SDS011;15046;50.930;13.334;2023-02-25T03:57:41;9.68;;;3.20;;
27632;SDS011;15046;50.930;13.334;2023-02-25T04:00:18;15.30;;;3.00;;
27632;SDS011;15046;50.930;13.334;2023-02-25T04:02:56;12.80;;;2.50;;
27632;SDS011;15046;50.930;13.334;2023-02-25T04:05:22;10.68;;;2.95;;
27632;SDS011;15046;50.930;13.334;2023-02-25T04:07:52;9.00;;;3.25;;
27632;SDS011;15046;50.930;13.334;2023-02-25T04:10:19;8.38;;;2.60;;
27632;SDS011;15046;50.930;13.334;2023-02-25T04:12:45;8.70;;;2.50;;
27632;SDS011;15046;50.930;13.334;2023-02-25T04:15:12;16.25;;;3.13;;
27632;SDS011;15046;50.930;13.334;2023-02-25T04:17:38;12.57;;;3.13;;
27632;SDS011;15046;50.930;13.334;2023-02-25T04:20:04;11.93;;;2.78;;
27632;SDS011;15046;50.930;13.334;2023-02-25T04:22:31;12.40;;;3.10;;
27632;SDS011;15046;50.930;13.334;2023-02-25T04:24:57;17.58;;;3.20;;
27632;SDS011;15046;50.930;13.334;2023-02-25T04:27:23;11.77;;;3.10;;
27632;SDS011;15046;50.930;13.334;2023-02-25T04:29:49;10.02;;;2.95;;
27632;SDS011;15046;50.930;13.334;2023-02-25T04:32:15;11.18;;;3.25;;
27632;SDS011;15046;50.930;13.334;2023-02-25T04:34:40;14.27;;;3.35;;
27632;SDS011;15046;50.930;13.334;2023-02-25T04:37:06;10.75;;;3.60;;
27632;SDS011;15046;50.930;13.334;2023-02-25T04:39:34;11.45;;;2.92;;
27632;SDS011;15046;50.930;13.334;2023-02-25T04:42:00;5.03;;;2.30;;
27632;SDS011;15046;50.930;13.334;2023-02-25T04:44:26;8.90;;;1.95;;
27632;SDS011;15046;50.930;13.334;2023-02-25T04:46:52;4.53;;;1.25;;
27632;SDS011;15046;50.930;13.334;2023-02-25T04:49:18;2.95;;;0.50;;
27632;SDS011;15046;50.930;13.334;2023-02-25T04:51:46;0.95;;;0.40;;
27632;SDS011;15046;50.930;13.334;2023-02-25T04:54:13;0.50;;;0.30;;
27632;SDS011;15046;50.930;13.334;2023-02-25T04:56:40;0.20;;;0.20;;
27632;SDS011;15046;50.930;13.334;2023-02-25T04:59:06;0.50;;;0.30;;
27632;SDS011;15046;50.930;13.334;2023-02-25T05:01:35;0.28;;;0.28;;
27632;SDS011;15046;50.930;13.334;2023-02-25T05:04:02;0.20;;;0.20;;
27632;SDS011;15046;50.930;13.334;2023-02-25T05:06:28;1.17;;;0.30;;
27632;SDS011;15046;50.930;13.334;2023-02-25T05:08:55;0.40;;;0.20;;
27632;SDS011;15046;50.930;13.334;2023-02-25T05:11:22;0.82;;;0.30;;
27632;SDS011;15046;50.930;13.334;2023-02-25T05:13:49;0.52;;;0.38;;
27632;SDS011;15046;50.930;13.334;2023-02-25T05:16:16;0.20;;;0.20;;
27632;SDS011;15046;50.930;13.334;2023-02-25T05:18:43;0.30;;;0.30;;
27632;SDS011;15046;50.930;13.334;2023-02-25T05:21:11;0.20;;;0.20;;
27632;SDS011;15046;50.930;13.334;2023-02-25T05:23:39;0.20;;;0.20;;
27632;SDS011;15046;50.930;13.334;2023-02-25T05:26:06;0.20;;;0.20;;
27632;SDS011;15046;50.930;13.334;2023-02-25T05:28:32;0.20;;;0.20;;
27632;SDS011;15046;50.930;13.334;2023-02-25T05:30:58;0.65;;;0.30;;
27632;SDS011;15046;50.930;13.334;2023-02-25T05:33:24;0.85;;;0.30;;
27632;SDS011;15046;50.930;13.334;2023-02-25T05:35:51;0.30;;;0.30;;
27632;SDS011;15046;50.930;13.334;2023-02-25T05:38:16;0.77;;;0.40;;
27632;SDS011;15046;50.930;13.334;2023-02-25T05:40:42;1.42;;;0.77;;
27632;SDS011;15046;50.930;13.334;2023-02-25T05:43:08;1.38;;;0.60;;
27632;SDS011;15046;50.930;13.334;2023-02-25T05:45:34;2.05;;;0.90;;
27632;SDS011;15046;50.930;13.334;2023-02-25T05:48:00;2.38;;;1.17;;
27632;SDS011;15046;50.930;13.334;2023-02-25T05:50:25;2.83;;;1.50;;
27632;SDS011;15046;50.930;13.334;2023-02-25T05:52:53;4.38;;;1.50;;
27632;SDS011;15046;50.930;13.334;2023-02-25T05:55:18;5.70;;;1.67;;
27632;SDS011;15046;50.930;13.334;2023-02-25T05:57:44;3.63;;;1.70;;
27632;SDS011;15046;50.930;13.334;2023-02-25T06:00:10;4.53;;;2.15;;
27632;SDS011;15046;50.930;13.334;2023-02-25T06:02:41;7.22;;;2.72;;
27632;SDS011;15046;50.930;13.334;2023-02-25T06:05:08;5.60;;;2.20;;
27632;SDS011;15046;50.930;13.334;2023-02-25T06:07:34;5.90;;;2.70;;
27632;SDS011;15046;50.930;13.334;2023-02-25T06:10:00;7.45;;;2.92;;
27632;SDS011;15046;50.930;13.334;2023-02-25T06:12:29;5.38;;;2.53;;
27632;SDS011;15046;50.930;13.334;2023-02-25T06:14:57;6.35;;;2.90;;
27632;SDS011;15046;50.930;13.334;2023-02-25T06:17:23;7.68;;;2.92;;
27632;SDS011;15046;50.930;13.334;2023-02-25T06:19:49;7.45;;;3.45;;
27632;SDS011;15046;50.930;13.334;2023-02-25T06:22:18;6.70;;;2.87;;
27632;SDS011;15046;50.930;13.334;2023-02-25T06:24:45;7.97;;;3.30;;
27632;SDS011;15046;50.930;13.334;2023-02-25T06:27:11;8.05;;;3.20;;
27632;SDS011;15046;50.930;13.334;2023-02-25T06:29:37;6.43;;;2.97;;
27632;SDS011;15046;50.930;13.334;2023-02-25T06:32:06;6.47;;;2.50;;
27632;SDS011;15046;50.930;13.334;2023-02-25T06:34:33;9.77;;;3.85;;
27632;SDS011;15046;50.930;13.334;2023-02-25T06:36:59;6.53;;;3.03;;
27632;SDS011;15046;50.930;13.334;2023-02-25T06:39:25;8.27;;;3.55;;
27632;SDS011;15046;50.930;13.334;2023-02-25T06:41:51;8.63;;;2.90;;
27632;SDS011;15046;50.930;13.334;2023-02-25T06:44:17;8.48;;;2.92;;
27632;SDS011;15046;50.930;13.334;2023-02-25T06:46:43;6.90;;;2.97;;
27632;SDS011;15046;50.930;13.334;2023-02-25T06:49:08;8.15;;;3.13;;
27632;SDS011;15046;50.930;13.334;2023-02-25T06:51:35;9.35;;;3.67;;
27632;SDS011;15046;50.930;13.334;2023-02-25T06:54:01;6.97;;;3.28;;
27632;SDS011;15046;50.930;13.334;2023-02-25T06:56:27;9.80;;;4.00;;
27632;SDS011;15046;50.930;13.334;2023-02-25T06:58:54;8.55;;;3.95;;
27632;SDS011;15046;50.930;13.334;2023-02-25T07:01:23;8.10;;;3.57;;
27632;SDS011;15046;50.930;13.334;2023-02-25T07:03:50;9.05;;;3.20;;
27632;SDS011;15046;50.930;13.334;2023-02-25T07:06:16;4.88;;;2.55;;
27632;SDS011;15046;50.930;13.334;2023-02-25T07:08:43;8.65;;;3.50;;
27632;SDS011;15046;50.930;13.334;2023-02-25T07:11:13;8.68;;;3.03;;
27632;SDS011;15046;50.930;13.334;2023-02-25T07:13:42;11.27;;;3.42;;
27632;SDS011;15046;50.930;13.334;2023-02-25T07:16:10;12.88;;;2.60;;
27632;SDS011;15046;50.930;13.334;2023-02-25T07:18:37;7.57;;;3.05;;
27632;SDS011;15046;50.930;13.334;2023-02-25T07:21:04;7.63;;;3.15;;
27632;SDS011;15046;50.930;13.334;2023-02-25T07:23:29;7.97;;;2.45;;
27632;SDS011;15046;50.930;13.334;2023-02-25T07:25:55;7.10;;;3.03;;
27632;SDS011;15046;50.930;13.334;2023-02-25T07:28:21;6.18;;;2.45;;
27632;SDS011;15046;50.930;13.334;2023-02-25T07:30:47;7.82;;;4.00;;
27632;SDS011;15046;50.930;13.334;2023-02-25T07:33:13;8.07;;;2.90;;
27632;SDS011;15046;50.930;13.334;2023-02-25T07:35:38;6.28;;;2.58;;
27632;SDS011;15046;50.930;13.334;2023-02-25T07:38:04;9.75;;;2.70;;
27632;SDS011;15046;50.930;13.334;2023-02-25T07:40:30;9.30;;;2.85;;
27632;SDS011;15046;50.930;13.334;2023-02-25T07:42:56;6.47;;;2.42;;
27632;SDS011;15046;50.930;13.334;2023-02-25T07:45:21;5.65;;;2.55;;
27632;SDS011;15046;50.930;13.334;2023-02-25T07:47:47;5.22;;;2.35;;
27632;SDS011;15046;50.930;13.334;2023-02-25T07:50:16;7.03;;;2.83;;
27632;SDS011;15046;50.930;13.334;2023-02-25T07:52:42;5.95;;;2.42;;
27632;SDS011;15046;50.930;13.334;2023-02-25T07:55:08;6.70;;;3.10;;
27632;SDS011;15046;50.930;13.334;2023-02-25T07:57:34;7.03;;;3.08;;
27632;SDS011;15046;50.930;13.334;2023-02-25T08:00:00;6.88;;;3.13;;
27632;SDS011;15046;50.930;13.334;2023-02-25T08:02:28;8.68;;;3.65;;
27632;SDS011;15046;50.930;13.334;2023-02-25T08:04:54;8.95;;;4.10;;
27632;SDS011;15046;50.930;13.334;2023-02-25T08:07:19;9.82;;;4.35;;
27632;SDS011;15046;50.930;13.334;2023-02-25T08:09:45;10.25;;;4.97;;
27632;SDS011;15046;50.930;13.334;2023-02-25T08:12:11;9.90;;;3.85;;
27632;SDS011;15046;50.930;13.334;2023-02-25T08:14:37;8.05;;;3.45;;
27632;SDS011;15046;50.930;13.334;2023-02-25T08:17:03;6.32;;;3.33;;
27632;SDS011;15046;50.930;13.334;2023-02-25T08:19:29;7.70;;;2.90;;
27632;SDS011;15046;50.930;13.334;2023-02-25T08:21:55;6.05;;;2.70;;
27632;SDS011;15046;50.930;13.334;2023-02-25T08:24:21;9.88;;;3.63;;
27632;SDS011;15046;50.930;13.334;2023-02-25T08:26:47;5.00;;;2.63;;
27632;SDS011;15046;50.930;13.334;2023-02-25T08:29:13;7.68;;;2.67;;
27632;SDS011;15046;50.930;13.334;2023-02-25T08:31:39;5.25;;;2.42;;
27632;SDS011;15046;50.930;13.334;2023-02-25T08:34:05;8.52;;;3.47;;
27632;SDS011;15046;50.930;13.334;2023-02-25T08:36:31;6.97;;;2.53;;
27632;SDS011;15046;50.930;13.334;2023-02-25T08:38:57;6.05;;;2.80;;
27632;SDS011;15046;50.930;13.334;2023-02-25T08:41:25;6.20;;;3.22;;
27632;SDS011;15046;50.930;13.334;2023-02-25T08:43:53;5.47;;;2.33;;
27632;SDS011;15046;50.930;13.334;2023-02-25T08:46:20;5.32;;;2.40;;
27632;SDS011;15046;50.930;13.334;2023-02-25T08:48:47;5.30;;;2.45;;
27632;SDS011;15046;50.930;13.334;2023-02-25T08:51:14;6.88;;;2.95;;
27632;SDS011;15046;50.930;13.334;2023-02-25T08:53:40;4.25;;;2.28;;
27632;SDS011;15046;50.930;13.334;2023-02-25T08:56:06;5.80;;;2.90;;
27632;SDS011;15046;50.930;13.334;2023-02-25T08:58:35;11.45;;;2.72;;
27632;SDS011;15046;50.930;13.334;2023-02-25T09:01:08;4.43;;;2.50;;
27632;SDS011;15046;50.930;13.334;2023-02-25T09:03:42;4.80;;;2.40;;
27632;SDS011;15046;50.930;13.334;2023-02-25T09:06:16;5.65;;;2.53;;
27632;SDS011;15046;50.930;13.334;2023-02-25T09:08:49;5.57;;;2.80;;
27632;SDS011;15046;50.930;13.334;2023-02-25T09:11:16;3.05;;;1.65;;
27632;SDS011;15046;50.930;13.334;2023-02-25T09:13:42;8.20;;;2.50;;
27632;SDS011;15046;50.930;13.334;2023-02-25T09:16:08;4.97;;;2.72;;
27632;SDS011;15046;50.930;13.334;2023-02-25T09:18:34;7.60;;;3.10;;
27632;SDS011;15046;50.930;13.334;2023-02-25T09:21:00;4.55;;;2.47;;
27632;SDS011;15046;50.930;13.334;2023-02-25T09:23:26;6.53;;;2.88;;
27632;SDS011;15046;50.930;13.334;2023-02-25T09:25:52;6.50;;;2.60;;
27632;SDS011;15046;50.930;13.334;2023-02-25T09:28:18;4.50;;;2.17;;
27632;SDS011;15046;50.930;13.334;2023-02-25T09:30:44;5.97;;;2.72;;
27632;SDS011;15046;50.930;13.334;2023-02-25T09:33:11;4.32;;;2.22;;
27632;SDS011;15046;50.930;13.334;2023-02-25T09:35:38;6.20;;;2.88;;
27632;SDS011;15046;50.930;13.334;2023-02-25T09:38:05;4.53;;;2.00;;
27632;SDS011;15046;50.930;13.334;2023-02-25T09:40:31;4.28;;;2.28;;
27632;SDS011;15046;50.930;13.334;2023-02-25T09:45:34;4.45;;;2.20;;
27632;SDS011;15046;50.930;13.334;2023-02-25T09:48:03;3.13;;;1.70;;
27632;SDS011;15046;50.930;13.334;2023-02-25T09:50:38;4.05;;;1.70;;
27632;SDS011;15046;50.930;13.334;2023-02-25T09:55:40;4.97;;;1.92;;
27632;SDS011;15046;50.930;13.334;2023-02-25T10:09:11;2.35;;;1.25;;
27632;SDS011;15046;50.930;13.334;2023-02-25T10:11:52;2.67;;;1.45;;
27632;SDS011;15046;50.930;13.334;2023-02-25T10:25:38;2.75;;;1.25;;
27632;SDS011;15046;50.930;13.334;2023-02-25T10:28:11;3.92;;;1.63;;
27632;SDS011;15046;50.930;13.334;2023-02-25T10:33:23;2.75;;;1.20;;
27632;SDS011;15046;50.930;13.334;2023-02-25T10:36:03;2.28;;;1.13;;
27632;SDS011;15046;50.930;13.334;2023-02-25T10:38:30;2.80;;;1.52;;
27632;SDS011;15046;50.930;13.334;2023-02-25T10:40:57;4.93;;;1.80;;
27632;SDS011;15046;50.930;13.334;2023-02-25T10:43:24;1.98;;;1.20;;
27632;SDS011;15046;50.930;13.334;2023-02-25T10:45:54;2.60;;;1.55;;
27632;SDS011;15046;50.930;13.334;2023-02-25T10:48:27;2.92;;;1.50;;
27632;SDS011;15046;50.930;13.334;2023-02-25T10:51:27;3.03;;;1.48;;
27632;SDS011;15046;50.930;13.334;2023-02-25T10:56:17;3.92;;;2.20;;
27632;SDS011;15046;50.930;13.334;2023-02-25T10:58:57;3.47;;;1.40;;
27632;SDS011;15046;50.930;13.334;2023-02-25T11:01:39;3.80;;;1.75;;
27632;SDS011;15046;50.930;13.334;2023-02-25T11:04:10;5.93;;;2.35;;
27632;SDS011;15046;50.930;13.334;2023-02-25T11:06:39;5.32;;;2.88;;
27632;SDS011;15046;50.930;13.334;2023-02-25T11:11:54;4.82;;;2.42;;
27632;SDS011;15046;50.930;13.334;2023-02-25T11:14:30;6.05;;;2.90;;
27632;SDS011;15046;50.930;13.334;2023-02-25T11:17:01;3.55;;;1.90;;
27632;SDS011;15046;50.930;13.334;2023-02-25T11:19:37;5.18;;;2.67;;
27632;SDS011;15046;50.930;13.334;2023-02-25T11:22:14;6.03;;;2.35;;
27632;SDS011;15046;50.930;13.334;2023-02-25T11:24:42;4.03;;;1.80;;
27632;SDS011;15046;50.930;13.334;2023-02-25T11:27:21;3.92;;;2.00;;
27632;SDS011;15046;50.930;13.334;2023-02-25T11:30:01;4.30;;;2.13;;
27632;SDS011;15046;50.930;13.334;2023-02-25T11:32:30;4.35;;;2.10;;
27632;SDS011;15046;50.930;13.334;2023-02-25T11:35:04;5.55;;;2.40;;
27632;SDS011;15046;50.930;13.334;2023-02-25T11:37:34;5.22;;;2.80;;
27632;SDS011;15046;50.930;13.334;2023-02-25T11:43:02;4.03;;;2.17;;
27632;SDS011;15046;50.930;13.334;2023-02-25T11:45:35;3.92;;;2.17;;
27632;SDS011;15046;50.930;13.334;2023-02-25T11:48:05;4.53;;;2.58;;
27632;SDS011;15046;50.930;13.334;2023-02-25T11:50:49;4.55;;;2.33;;
27632;SDS011;15046;50.930;13.334;2023-02-25T11:56:06;5.13;;;2.30;;
27632;SDS011;15046;50.930;13.334;2023-02-25T11:59:19;5.28;;;2.80;;
27632;SDS011;15046;50.930;13.334;2023-02-25T12:07:37;4.20;;;2.05;;
27632;SDS011;15046;50.930;13.334;2023-02-25T12:27:15;4.40;;;1.75;;
27632;SDS011;15046;50.930;13.334;2023-02-25T12:33:13;4.30;;;2.35;;
27632;SDS011;15046;50.930;13.334;2023-02-25T12:44:14;5.18;;;2.50;;
27632;SDS011;15046;50.930;13.334;2023-02-25T12:53:33;3.42;;;1.88;;
27632;SDS011;15046;50.930;13.334;2023-02-25T13:36:41;5.15;;;2.10;;
27632;SDS011;15046;50.930;13.334;2023-02-25T13:59:08;5.75;;;2.35;;
27632;SDS011;15046;50.930;13.334;2023-02-25T14:08:32;3.28;;;1.58;;
27632;SDS011;15046;50.930;13.334;2023-02-25T14:22:58;3.28;;;1.35;;
27632;SDS011;15046;50.930;13.334;2023-02-25T14:28:07;1.23;;;0.63;;
27632;SDS011;15046;50.930;13.334;2023-02-25T14:30:43;4.05;;;1.30;;
27632;SDS011;15046;50.930;13.334;2023-02-25T14:47:38;1.42;;;0.60;;
27632;SDS011;15046;50.930;13.334;2023-02-25T14:50:28;1.00;;;0.55;;
27632;SDS011;15046;50.930;13.334;2023-02-25T14:53:13;0.90;;;0.60;;
27632;SDS011;15046;50.930;13.334;2023-02-25T14:59:00;1.55;;;0.80;;
27632;SDS011;15046;50.930;13.334;2023-02-25T15:24:34;1.05;;;0.70;;
27632;SDS011;15046;50.930;13.334;2023-02-25T15:30:02;1.20;;;0.73;;
27632;SDS011;15046;50.930;13.334;2023-02-25T15:32:48;1.15;;;0.55;;
27632;SDS011;15046;50.930;13.334;2023-02-25T15:42:58;1.77;;;0.70;;
27632;SDS011;15046;50.930;13.334;2023-02-25T15:45:29;4.85;;;0.80;;
27632;SDS011;15046;50.930;13.334;2023-02-25T16:06:03;2.90;;;1.13;;
27632;SDS011;15046;50.930;13.334;2023-02-25T16:14:30;6.78;;;2.00;;
27632;SDS011;15046;50.930;13.334;2023-02-25T16:17:04;3.55;;;1.77;;
27632;SDS011;15046;50.930;13.334;2023-02-25T16:19:39;4.10;;;1.80;;
27632;SDS011;15046;50.930;13.334;2023-02-25T16:22:06;3.25;;;1.63;;
27632;SDS011;15046;50.930;13.334;2023-02-25T16:24:49;6.70;;;1.52;;
27632;SDS011;15046;50.930;13.334;2023-02-25T16:27:31;3.72;;;1.58;;
27632;SDS011;15046;50.930;13.334;2023-02-25T16:30:13;3.78;;;1.20;;
27632;SDS011;15046;50.930;13.334;2023-02-25T16:33:05;5.55;;;2.35;;
27632;SDS011;15046;50.930;13.334;2023-02-25T16:39:18;5.07;;;2.08;;
27632;SDS011;15046;50.930;13.334;2023-02-25T16:41:34;4.43;;;1.40;;
27632;SDS011;15046;50.930;13.334;2023-02-25T16:44:01;2.72;;;1.02;;
27632;SDS011;15046;50.930;13.334;2023-02-25T16:46:29;1.88;;;1.10;;
27632;SDS011;15046;50.930;13.334;2023-02-25T16:48:58;3.63;;;1.40;;
27632;SDS011;15046;50.930;13.334;2023-02-25T16:54:08;4.15;;;2.08;;
27632;SDS011;15046;50.930;13.334;2023-02-25T16:56:34;4.18;;;1.67;;
27632;SDS011;15046;50.930;13.334;2023-02-25T17:01:39;6.20;;;1.30;;
27632;SDS011;15046;50.930;13.334;2023-02-25T17:04:15;1.50;;;0.95;;
27632;SDS011;15046;50.930;13.334;2023-02-25T17:09:33;3.25;;;1.50;;
27632;SDS011;15046;50.930;13.334;2023-02-25T17:11:59;3.63;;;1.85;;
27632;SDS011;15046;50.930;13.334;2023-02-25T17:14:27;2.45;;;1.40;;
27632;SDS011;15046;50.930;13.334;2023-02-25T17:16:55;4.97;;;1.10;;
27632;SDS011;15046;50.930;13.334;2023-02-25T17:19:21;3.78;;;1.45;;
27632;SDS011;15046;50.930;13.334;2023-02-25T17:21:50;2.47;;;1.30;;
27632;SDS011;15046;50.930;13.334;2023-02-25T17:24:22;3.38;;;1.10;;
27632;SDS011;15046;50.930;13.334;2023-02-25T17:26:55;2.67;;;1.33;;
27632;SDS011;15046;50.930;13.334;2023-02-25T17:29:21;3.05;;;1.10;;
27632;SDS011;15046;50.930;13.334;2023-02-25T17:31:58;2.53;;;1.17;;
27632;SDS011;15046;50.930;13.334;2023-02-25T17:34:28;3.35;;;1.40;;
27632;SDS011;15046;50.930;13.334;2023-02-25T17:36:59;4.32;;;1.73;;
27632;SDS011;15046;50.930;13.334;2023-02-25T17:39:29;4.95;;;1.40;;
27632;SDS011;15046;50.930;13.334;2023-02-25T17:41:55;3.25;;;1.30;;
27632;SDS011;15046;50.930;13.334;2023-02-25T17:47:09;2.72;;;1.15;;
27632;SDS011;15046;50.930;13.334;2023-02-25T17:49:43;7.07;;;1.67;;
27632;SDS011;15046;50.930;13.334;2023-02-25T17:52:17;3.30;;;1.70;;
27632;SDS011;15046;50.930;13.334;2023-02-25T17:54:47;3.30;;;1.75;;
27632;SDS011;15046;50.930;13.334;2023-02-25T17:57:20;2.20;;;1.33;;
27632;SDS011;15046;50.930;13.334;2023-02-25T18:00:17;2.25;;;1.20;;
27632;SDS011;15046;50.930;13.334;2023-02-25T18:02:44;2.58;;;1.30;;
27632;SDS011;15046;50.930;13.334;2023-02-25T18:10:47;3.08;;;1.50;;
27632;SDS011;15046;50.930;13.334;2023-02-25T18:13:40;4.97;;;2.10;;
27632;SDS011;15046;50.930;13.334;2023-02-25T18:18:52;2.67;;;1.45;;
27632;SDS011;15046;50.930;13.334;2023-02-25T18:21:19;4.00;;;1.35;;
27632;SDS011;15046;50.930;13.334;2023-02-25T18:23:45;2.70;;;1.48;;
27632;SDS011;15046;50.930;13.334;2023-02-25T18:28:42;2.85;;;1.50;;
27632;SDS011;15046;50.930;13.334;2023-02-25T18:31:10;4.60;;;1.20;;
27632;SDS011;15046;50.930;13.334;2023-02-25T18:33:38;3.33;;;1.00;;
27632;SDS011;15046;50.930;13.334;2023-02-25T18:36:05;3.03;;;0.98;;
27632;SDS011;15046;50.930;13.334;2023-02-25T18:38:33;1.95;;;1.20;;
27632;SDS011;15046;50.930;13.334;2023-02-25T18:41:02;3.95;;;1.55;;
27632;SDS011;15046;50.930;13.334;2023-02-25T18:43:31;3.08;;;1.35;;
27632;SDS011;15046;50.930;13.334;2023-02-25T18:46:01;3.13;;;1.52;;
27632;SDS011;15046;50.930;13.334;2023-02-25T18:48:27;2.80;;;1.48;;
27632;SDS011;15046;50.930;13.334;2023-02-25T18:50:53;7.05;;;2.53;;
27632;SDS011;15046;50.930;13.334;2023-02-25T18:53:21;3.92;;;1.70;;
27632;SDS011;15046;50.930;13.334;2023-02-25T18:55:49;5.32;;;2.33;;
27632;SDS011;15046;50.930;13.334;2023-02-25T18:58:17;7.72;;;2.90;;
27632;SDS011;15046;50.930;13.334;2023-02-25T19:00:46;6.40;;;2.03;;
27632;SDS011;15046;50.930;13.334;2023-02-25T19:03:15;7.63;;;2.50;;
27632;SDS011;15046;50.930;13.334;2023-02-25T19:05:45;5.20;;;2.22;;
27632;SDS011;15046;50.930;13.334;2023-02-25T19:08:12;5.40;;;2.15;;
27632;SDS011;15046;50.930;13.334;2023-02-25T19:10:40;6.70;;;2.15;;
27632;SDS011;15046;50.930;13.334;2023-02-25T19:13:13;3.10;;;1.30;;
27632;SDS011;15046;50.930;13.334;2023-02-25T19:15:53;4.13;;;2.05;;
27632;SDS011;15046;50.930;13.334;2023-02-25T19:18:19;2.97;;;1.63;;
27632;SDS011;15046;50.930;13.334;2023-02-25T19:20:44;6.32;;;2.10;;
27632;SDS011;15046;50.930;13.334;2023-02-25T19:23:11;3.55;;;1.92;;
27632;SDS011;15046;50.930;13.334;2023-02-25T19:25:39;1.42;;;1.08;;
27632;SDS011;15046;50.930;13.334;2023-02-25T19:28:06;3.05;;;1.85;;
27632;SDS011;15046;50.930;13.334;2023-02-25T19:30:36;4.35;;;2.03;;
27632;SDS011;15046;50.930;13.334;2023-02-25T19:33:04;3.70;;;1.90;;
27632;SDS011;15046;50.930;13.334;2023-02-25T19:35:32;3.38;;;1.83;;
27632;SDS011;15046;50.930;13.334;2023-02-25T19:38:00;3.50;;;2.10;;
27632;SDS011;15046;50.930;13.334;2023-02-25T19:40:26;5.10;;;2.92;;
27632;SDS011;15046;50.930;13.334;2023-02-25T19:42:53;6.68;;;2.00;;
27632;SDS011;15046;50.930;13.334;2023-02-25T19:45:20;4.50;;;2.30;;